Time;durP1;ratioP1;P1;durP2;ratioP2;P2;SDS_P1;SDS_P2;PMS_P1;PMS_P2;Temp;Humidity;BMP_temperature;BMP_pressure;BME280_temperature;BME280_humidity;BME280_pressure;Samples;Min_cycle;Max_cycle;Signal;HPM_P1;HPM_P2
2021/01/17 00:04:49;;;;;;;0.90;0.90;;;;;;;-3.70;82.58;96937.19;299395;202;63023;-55
2021/01/17 00:09:50;;;;;;;1.00;1.00;;;;;;;-3.67;82.56;96923.53;299395;218;63004;-55
2021/01/17 00:14:51;;;;;;;0.90;0.90;;;;;;;-3.68;82.66;96913.94;299395;223;63009;-56
2021/01/17 00:19:52;;;;;;;0.90;0.90;;;;;;;-3.65;82.39;96897.63;299395;211;63005;-56
2021/01/17 00:24:53;;;;;;;0.90;0.90;;;;;;;-3.70;82.48;96889.47;299395;210;63008;-56
2021/01/17 00:29:54;;;;;;;0.90;0.90;;;;;;;-3.69;82.61;96877.84;299395;242;63004;-56
2021/01/17 00:34:55;;;;;;;0.90;0.90;;;;;;;-3.81;83.61;96871.53;299395;208;63009;-56
2021/01/17 00:39:59;;;;;;;0.90;0.90;;;;;;;-3.75;83.31;96868.87;299395;216;63014;-57
2021/01/17 00:45:05;;;;;;;0.90;0.90;;;;;;;-3.84;83.54;96874.59;299417;329;63009;-56
2021/01/17 00:50:08;;;;;;;0.80;0.80;;;;;;;-3.78;83.66;96871.09;299373;242;63005;-62
2021/01/17 00:55:10;;;;;;;0.90;0.90;;;;;;;-3.72;83.21;96857.84;299395;218;63008;-56
2021/01/17 01:00:13;;;;;;;0.90;0.90;;;;;;;-3.70;83.23;96855.00;299395;294;63009;-55
2021/01/17 01:05:14;;;;;;;0.90;0.90;;;;;;;-3.78;83.53;96833.97;299395;217;63009;-54
2021/01/17 01:10:16;;;;;;;0.90;0.90;;;;;;;-3.72;83.58;96841.12;299395;222;63005;-55
2021/01/17 01:15:17;;;;;;;0.90;0.90;;;;;;;-3.68;83.57;96838.87;299395;222;63009;-56
2021/01/17 01:20:18;;;;;;;0.90;0.90;;;;;;;-3.68;83.34;96833.59;299395;216;63005;-56
2021/01/17 01:25:19;;;;;;;0.90;0.90;;;;;;;-3.70;82.93;96823.19;299395;387;63009;-55
2021/01/17 01:30:21;;;;;;;0.90;0.90;;;;;;;-3.60;83.18;96825.44;299394;207;64009;-56
2021/01/17 01:35:22;;;;;;;0.90;0.90;;;;;;;-3.60;82.45;96825.44;299395;197;63009;-56
2021/01/17 01:40:23;;;;;;;0.90;0.90;;;;;;;-3.57;82.25;96809.91;299395;322;63005;-57
2021/01/17 01:45:24;;;;;;;0.90;0.90;;;;;;;-3.69;82.54;96805.44;299395;353;63017;-56
2021/01/17 01:50:25;;;;;;;0.90;0.90;;;;;;;-3.61;82.59;96803.41;299395;215;63005;-57
2021/01/17 01:55:26;;;;;;;0.80;0.80;;;;;;;-3.59;82.36;96796.06;299395;300;63009;-56
2021/01/17 02:00:27;;;;;;;0.90;0.90;;;;;;;-3.61;82.61;96790.13;299395;226;63004;-56
2021/01/17 02:05:28;;;;;;;0.80;0.80;;;;;;;-3.67;82.86;96788.31;299395;263;63009;-64
2021/01/17 02:10:29;;;;;;;0.90;0.90;;;;;;;-3.70;83.47;96780.75;299395;234;63005;-57
2021/01/17 02:15:33;;;;;;;0.90;0.90;;;;;;;-3.65;82.75;96782.78;299395;318;63009;-55
2021/01/17 02:20:38;;;;;;;0.90;0.90;;;;;;;-3.59;82.39;96774.84;299417;374;63005;-57
2021/01/17 02:25:39;;;;;;;0.90;0.90;;;;;;;-3.70;82.73;96770.16;299417;206;63009;-55
2021/01/17 02:30:46;;;;;;;0.90;0.90;;;;;;;-3.67;83.41;96767.09;299395;324;63004;-55
2021/01/17 02:35:48;;;;;;;0.90;0.90;;;;;;;-3.77;83.45;96777.28;299395;387;63019;-57
2021/01/17 02:41:18;;;;;;;0.90;0.90;;;;;;;-3.77;83.24;96756.06;299395;214;63005;-56
2021/01/17 02:46:19;;;;;;;0.90;0.90;;;;;;;-3.82;83.75;96763.84;299395;338;63008;-55
2021/01/17 02:51:20;;;;;;;0.90;0.90;;;;;;;-3.83;84.33;96756.94;299395;231;63004;-55
2021/01/17 02:56:28;;;;;;;0.80;0.80;;;;;;;-3.89;83.90;96768.34;299395;220;63009;-55
2021/01/17 03:01:35;;;;;;;0.90;0.90;;;;;;;-3.81;83.85;96770.78;299395;229;63014;-56
2021/01/17 03:06:41;;;;;;;0.90;0.90;;;;;;;-3.80;84.01;96773.22;299395;213;63009;-55
2021/01/17 03:11:42;;;;;;;0.90;0.90;;;;;;;-3.79;83.99;96772.19;299395;209;63005;-56
2021/01/17 03:16:47;;;;;;;0.90;0.90;;;;;;;-3.71;83.81;96766.69;299395;216;63009;-57
2021/01/17 03:21:48;;;;;;;0.90;0.90;;;;;;;-3.66;83.78;96758.12;299395;228;63004;-56
2021/01/17 03:26:50;;;;;;;0.90;0.90;;;;;;;-3.67;83.79;96756.47;299395;235;63009;-57
2021/01/17 03:31:51;;;;;;;0.80;0.80;;;;;;;-3.64;83.54;96748.13;299395;232;63005;-56
2021/01/17 03:36:51;;;;;;;0.90;0.90;;;;;;;-3.67;83.80;96739.75;299395;198;63009;-56
2021/01/17 03:41:52;;;;;;;0.90;0.90;;;;;;;-3.73;84.55;96725.47;299395;210;63005;-56
2021/01/17 03:46:53;;;;;;;0.90;0.90;;;;;;;-3.67;84.00;96724.66;299395;228;63009;-56
2021/01/17 03:51:54;;;;;;;0.90;0.90;;;;;;;-3.71;84.30;96728.75;299395;221;63004;-57
2021/01/17 03:56:55;;;;;;;0.90;0.90;;;;;;;-3.68;84.03;96732.81;299395;202;63009;-55
2021/01/17 04:01:56;;;;;;;0.98;0.98;;;;;;;-3.64;83.96;96729.56;299395;359;63005;-55
2021/01/17 04:06:58;;;;;;;1.00;1.00;;;;;;;-3.65;84.73;96733.22;299395;206;63009;-55
2021/01/17 04:11:59;;;;;;;1.00;1.00;;;;;;;-3.62;84.75;96732.81;299395;265;63005;-56
2021/01/17 04:17:01;;;;;;;0.88;0.88;;;;;;;-3.65;84.47;96724.47;299395;345;63009;-55
2021/01/17 04:22:02;;;;;;;0.80;0.80;;;;;;;-3.58;84.30;96728.72;299395;359;63004;-56
2021/01/17 04:27:03;;;;;;;0.85;0.85;;;;;;;-3.60;83.77;96725.47;299395;285;63009;-55
2021/01/17 04:32:05;;;;;;;0.80;0.80;;;;;;;-3.61;84.31;96731.78;299395;234;63005;-56
2021/01/17 04:37:06;;;;;;;0.90;0.90;;;;;;;-3.55;84.06;96740.75;299395;383;63009;-55
2021/01/17 04:42:09;;;;;;;0.90;0.90;;;;;;;-3.55;84.28;96741.56;299395;204;63005;-57
2021/01/17 04:47:13;;;;;;;0.90;0.90;;;;;;;-3.56;84.38;96747.09;299395;208;63009;-56
2021/01/17 04:52:20;;;;;;;0.80;0.80;;;;;;;-3.60;84.31;96746.69;299417;227;63004;-57
2021/01/17 04:58:04;;;;;;;0.90;0.90;;;;;;;-3.60;84.62;96757.28;299395;231;63009;-56
2021/01/17 05:03:26;;;;;;;0.90;0.90;;;;;;;-3.43;83.69;96747.03;299395;218;63005;-57
2021/01/17 05:08:32;;;;;;;0.80;0.80;;;;;;;-3.52;84.42;96746.47;299395;263;63008;-56
2021/01/17 05:13:38;;;;;;;0.90;0.90;;;;;;;-3.50;84.58;96760.34;299395;226;63004;-56
2021/01/17 05:18:48;;;;;;;0.80;0.80;;;;;;;-3.52;84.32;96759.72;299395;222;63009;-57
2021/01/17 05:23:54;;;;;;;0.80;0.80;;;;;;;-3.50;84.60;96762.19;299395;257;63005;-56
2021/01/17 05:28:55;;;;;;;0.80;0.80;;;;;;;-3.52;84.19;96761.56;299395;315;63009;-56
2021/01/17 05:33:59;;;;;;;0.80;0.80;;;;;;;-3.53;84.62;96763.41;299395;204;63005;-57
2021/01/17 05:39:02;;;;;;;0.90;0.90;;;;;;;-3.48;85.27;96770.75;299417;283;63009;-55
2021/01/17 05:44:04;;;;;;;0.90;0.90;;;;;;;-3.43;84.92;96774.38;299395;284;63004;-55
2021/01/17 05:49:14;;;;;;;0.90;0.90;;;;;;;-3.40;84.93;96784.56;299395;211;63009;-55
2021/01/17 05:54:15;;;;;;;0.90;0.90;;;;;;;-3.41;84.91;96782.13;299395;247;63005;-60
2021/01/17 05:59:37;;;;;;;0.90;0.90;;;;;;;-3.32;84.97;96793.34;299395;198;63009;-56
2021/01/17 06:04:40;;;;;;;0.90;0.90;;;;;;;-3.25;84.79;96796.81;299395;231;63004;-56
2021/01/17 06:09:43;;;;;;;0.90;0.90;;;;;;;-3.20;84.31;96791.69;299395;214;63021;-55
2021/01/17 06:15:00;;;;;;;0.90;0.90;;;;;;;-3.26;84.32;96789.88;299395;207;63004;-56
2021/01/17 06:20:05;;;;;;;0.90;0.90;;;;;;;-3.13;84.09;96787.19;299395;360;63009;-56
2021/01/17 06:25:07;;;;;;;0.80;0.80;;;;;;;-3.23;84.35;96784.13;299395;205;63005;-56
2021/01/17 06:30:18;;;;;;;0.80;0.80;;;;;;;-3.35;84.91;96780.50;299395;199;63009;-60
2021/01/17 06:35:33;;;;;;;0.90;0.90;;;;;;;-3.34;85.60;96787.44;299395;219;63004;-57
2021/01/17 06:40:37;;;;;;;0.90;0.90;;;;;;;-3.32;86.19;96785.37;299417;230;63009;-56
2021/01/17 06:45:42;;;;;;;0.90;0.90;;;;;;;-3.26;85.48;96774.75;299417;203;63005;-57
2021/01/17 06:50:43;;;;;;;0.90;0.90;;;;;;;-3.31;85.40;96779.06;299395;347;63009;-55
2021/01/17 06:55:44;;;;;;;0.80;0.80;;;;;;;-3.29;85.37;96790.28;299395;221;63005;-57
2021/01/17 07:00:48;;;;;;;0.90;0.90;;;;;;;-3.29;85.44;96790.28;299395;198;63018;-56
2021/01/17 07:06:05;;;;;;;0.90;0.90;;;;;;;-3.30;85.40;96786.81;299417;330;63004;-55
2021/01/17 07:11:32;;;;;;;0.90;0.90;;;;;;;-3.31;85.53;96802.94;299373;214;63009;-57
2021/01/17 07:16:34;;;;;;;0.90;0.90;;;;;;;-3.28;86.07;96807.81;299396;356;63005;-57
2021/01/17 07:21:39;;;;;;;0.90;0.90;;;;;;;-3.28;86.18;96799.87;299396;197;63008;-61
2021/01/17 07:27:19;;;;;;;0.90;0.90;;;;;;;-3.22;86.32;96812.31;299418;205;63004;-55
2021/01/17 07:32:34;;;;;;;0.90;0.90;;;;;;;-3.16;85.94;96816.78;299395;202;64013;-55
2021/01/17 07:37:39;;;;;;;0.90;0.90;;;;;;;-3.16;86.01;96812.31;299418;197;63005;-56
2021/01/17 07:42:43;;;;;;;0.90;0.90;;;;;;;-3.09;86.19;96820.22;299374;231;63009;-61
2021/01/17 07:47:46;;;;;;;0.90;0.90;;;;;;;-3.05;85.29;96818.78;299418;207;63005;-61
2021/01/17 07:52:53;;;;;;;0.90;0.90;;;;;;;-2.98;85.74;96830.19;299375;233;63009;-57
2021/01/17 07:57:55;;;;;;;0.82;0.82;;;;;;;-2.98;85.47;96846.13;299396;400;63004;-56
2021/01/17 08:02:57;;;;;;;0.90;0.90;;;;;;;-2.99;85.87;96841.84;299397;229;63009;-56
2021/01/17 08:07:58;;;;;;;0.90;0.90;;;;;;;-2.88;85.86;96843.84;299397;202;63005;-56
2021/01/17 08:13:00;;;;;;;0.90;0.90;;;;;;;-2.79;86.04;96847.91;299396;284;63009;-55
2021/01/17 08:18:01;;;;;;;0.80;0.80;;;;;;;-2.65;85.49;96850.50;299396;199;63005;-56
2021/01/17 08:23:04;;;;;;;0.80;0.80;;;;;;;-2.53;85.26;96864.78;299396;230;63009;-61
2021/01/17 08:28:30;;;;;;;0.90;0.90;;;;;;;-2.42;85.30;96856.13;299396;244;63004;-55
2021/01/17 08:33:32;;;;;;;0.80;0.80;;;;;;;-2.35;85.33;96870.19;299396;303;63004;-56
2021/01/17 08:38:35;;;;;;;0.80;0.80;;;;;;;-2.31;84.86;96863.44;299396;376;63009;-60
2021/01/17 08:43:40;;;;;;;0.90;0.90;;;;;;;-2.32;84.89;96866.31;299440;268;63004;-56
2021/01/17 08:48:49;;;;;;;0.80;0.80;;;;;;;-2.30;85.03;96870.38;299418;323;63020;-58
2021/01/17 08:53:51;;;;;;;0.90;0.90;;;;;;;-2.28;85.40;96873.63;299397;226;63005;-57
2021/01/17 08:58:54;;;;;;;0.90;0.90;;;;;;;-2.24;85.07;96890.78;299396;198;63008;-56
2021/01/17 09:03:57;;;;;;;0.85;0.85;;;;;;;-2.13;85.17;96898.09;299395;234;63004;-55
2021/01/17 09:09:04;;;;;;;0.90;0.90;;;;;;;-2.14;85.16;96909.78;299395;332;63009;-59
2021/01/17 09:14:26;;;;;;;0.80;0.80;;;;;;;-2.05;85.15;96915.63;299395;202;63004;-56
2021/01/17 09:19:32;;;;;;;0.80;0.80;;;;;;;-2.02;84.87;96913.38;299395;222;63009;-60
2021/01/17 09:24:40;;;;;;;0.80;0.80;;;;;;;-1.87;84.71;96917.59;299395;198;63005;-59
2021/01/17 09:29:42;;;;;;;0.85;0.85;;;;;;;-1.84;84.16;96917.97;299395;203;63009;-59
2021/01/17 09:34:47;;;;;;;0.90;0.90;;;;;;;-1.81;84.08;96914.09;299395;250;63004;-59
2021/01/17 09:39:51;;;;;;;0.85;0.85;;;;;;;-1.72;84.16;96926.91;299395;228;63009;-62
2021/01/17 09:44:56;;;;;;;0.80;0.80;;;;;;;-1.60;84.22;96928.87;299395;203;63005;-67
2021/01/17 09:50:09;;;;;;;0.80;0.80;;;;;;;-1.53;84.01;96935.78;299395;373;63008;-64
2021/01/17 09:55:12;;;;;;;0.80;0.80;;;;;;;-1.45;83.97;96943.53;299395;228;63004;-65
2021/01/17 10:00:22;;;;;;;0.80;0.80;;;;;;;-1.42;83.64;96943.09;299395;267;63009;-64
2021/01/17 10:05:33;;;;;;;0.90;0.90;;;;;;;-1.33;84.06;96945.47;299395;196;63004;-56
2021/01/17 10:10:37;;;;;;;0.90;0.90;;;;;;;-1.32;84.18;96944.44;299395;216;63009;-63
2021/01/17 10:15:40;;;;;;;0.80;0.80;;;;;;;-1.18;84.17;96944.13;299395;273;63005;-64
2021/01/17 10:20:42;;;;;;;0.80;0.80;;;;;;;-1.04;83.55;96950.16;299395;204;63009;-63
2021/01/17 10:25:46;;;;;;;0.80;0.80;;;;;;;-1.07;84.31;96950.59;299395;199;63004;-64
2021/01/17 10:30:46;;;;;;;0.90;0.90;;;;;;;-1.07;84.50;96947.94;299439;212;63009;-55
2021/01/17 10:35:49;;;;;;;0.80;0.80;;;;;;;-0.99;84.53;96947.63;299395;223;63005;-66
2021/01/17 10:40:50;;;;;;;0.80;0.80;;;;;;;-1.01;84.58;96949.69;299395;356;63009;-65
2021/01/17 10:46:08;;;;;;;0.80;0.80;;;;;;;-1.05;84.26;96953.88;299395;257;63005;-63
2021/01/17 10:51:17;;;;;;;0.90;0.90;;;;;;;-0.99;84.22;96936.97;299395;222;63009;-65
2021/01/17 10:56:21;;;;;;;0.80;0.80;;;;;;;-0.74;82.99;96937.78;299395;248;63004;-66
2021/01/17 11:01:33;;;;;;;;;;;;;;;-0.75;83.24;96949.47;299996;982;6004;-68
2021/01/17 11:06:34;;;;;;;0.80;0.80;;;;;;;-0.68;83.20;96949.41;299400;216;63009;-68
2021/01/17 11:11:44;;;;;;;0.80;0.80;;;;;;;-0.79;83.26;96952.81;299395;296;63004;-65
2021/01/17 11:16:51;;;;;;;0.80;0.80;;;;;;;-0.73;83.38;96950.09;299395;227;63009;-67
2021/01/17 11:21:54;;;;;;;0.80;0.80;;;;;;;-0.67;83.86;96951.03;299395;219;63005;-67
2021/01/17 11:27:09;;;;;;;0.80;0.80;;;;;;;-0.65;83.85;96953.47;299395;229;63008;-69
2021/01/17 11:32:16;;;;;;;0.80;0.80;;;;;;;-0.64;83.83;96955.09;299417;370;63004;-67
2021/01/17 11:37:17;;;;;;;0.80;0.80;;;;;;;-0.80;84.51;96951.16;299395;222;63009;-68
2021/01/17 11:42:20;;;;;;;0.80;0.80;;;;;;;-0.81;84.19;96958.34;299395;360;63004;-68
2021/01/17 11:47:22;;;;;;;0.80;0.80;;;;;;;-0.85;84.77;96951.81;299395;218;63009;-59
2021/01/17 11:52:25;;;;;;;0.80;0.80;;;;;;;-0.94;85.27;96954.97;299395;262;63005;-59
2021/01/17 11:57:30;;;;;;;0.80;0.80;;;;;;;-0.99;85.94;96960.94;299395;223;63008;-67
2021/01/17 12:02:39;;;;;;;0.80;0.80;;;;;;;-0.94;85.98;96954.97;299417;202;63004;-66
2021/01/17 12:07:56;;;;;;;0.80;0.80;;;;;;;-0.95;86.05;96954.16;299395;238;63009;-58
2021/01/17 12:12:59;;;;;;;0.80;0.80;;;;;;;-0.95;86.33;96950.69;299395;252;63004;-60
2021/01/17 12:18:00;;;;;;;0.80;0.80;;;;;;;-0.87;85.97;96947.75;299395;235;63009;-60
2021/01/17 12:23:02;;;;;;;0.80;0.80;;;;;;;-0.86;86.16;96947.53;299395;228;63005;-61
2021/01/17 12:28:05;;;;;;;0.80;0.80;;;;;;;-0.83;85.93;96944.44;299395;199;63009;-59
2021/01/17 12:33:06;;;;;;;0.80;0.80;;;;;;;-0.74;85.76;96951.13;299395;206;63004;-60
2021/01/17 12:38:07;;;;;;;0.80;0.80;;;;;;;-0.63;84.81;96946.88;299395;250;63009;-74
2021/01/17 12:43:10;;;;;;;0.80;0.80;;;;;;;-0.72;85.73;96943.72;299395;234;63005;-63
2021/01/17 12:48:11;;;;;;;0.90;0.90;;;;;;;-0.72;85.32;96951.72;299395;207;63009;-58
2021/01/17 12:53:12;;;;;;;0.90;0.90;;;;;;;-0.86;86.44;96952.84;299395;224;63005;-58
2021/01/17 12:58:14;;;;;;;0.80;0.80;;;;;;;-0.94;87.40;96963.78;299395;330;63009;-73
2021/01/17 13:03:16;;;;;;;0.80;0.80;;;;;;;-0.84;86.96;96957.97;299395;214;63004;-73
2021/01/17 13:08:18;;;;;;;0.80;0.80;;;;;;;-0.91;87.02;96955.34;299395;281;63009;-59
2021/01/17 13:13:19;;;;;;;0.80;0.80;;;;;;;-0.87;87.12;96961.88;299395;239;63005;-59
2021/01/17 13:18:21;;;;;;;0.80;0.80;;;;;;;-0.75;86.85;96970.81;299395;264;63009;-73
2021/01/17 13:23:22;;;;;;;0.80;0.80;;;;;;;-0.73;86.52;96979.38;299395;213;63005;-73
2021/01/17 13:28:24;;;;;;;0.80;0.80;;;;;;;-0.68;86.70;96976.03;299395;205;63009;-61
2021/01/17 13:33:25;;;;;;;0.80;0.80;;;;;;;-0.65;86.86;96980.94;299395;202;63004;-59
2021/01/17 13:38:28;;;;;;;0.80;0.80;;;;;;;-0.69;87.45;96991.22;299395;231;63009;-63
2021/01/17 13:43:29;;;;;;;0.80;0.80;;;;;;;-0.71;87.50;96993.31;299395;228;63005;-64
2021/01/17 13:48:30;;;;;;;0.80;0.80;;;;;;;-0.67;87.63;97002.47;299395;202;63012;-64
2021/01/17 13:53:31;;;;;;;0.80;0.80;;;;;;;-0.65;87.11;97012.09;299395;232;63005;-65
2021/01/17 13:58:32;;;;;;;0.80;0.80;;;;;;;-0.65;87.41;97012.09;299395;236;63018;-60
2021/01/17 14:03:33;;;;;;;0.80;0.80;;;;;;;-0.65;87.57;97012.91;299395;214;63004;-62
2021/01/17 14:08:34;;;;;;;0.80;0.80;;;;;;;-0.68;87.67;97026.66;299395;226;63009;-65
2021/01/17 14:13:35;;;;;;;0.80;0.80;;;;;;;-0.70;88.06;97037.56;299395;224;63005;-65
2021/01/17 14:18:36;;;;;;;0.80;0.80;;;;;;;-0.62;87.61;97038.31;299395;228;63008;-61
2021/01/17 14:23:36;;;;;;;0.90;0.90;;;;;;;-0.65;87.98;97054.72;299395;352;63004;-65
2021/01/17 14:28:38;;;;;;;0.80;0.80;;;;;;;-0.68;87.82;97061.31;299395;225;63009;-65
2021/01/17 14:33:39;;;;;;;0.80;0.80;;;;;;;-0.73;88.39;97064.66;299395;226;63008;-62
2021/01/17 14:38:40;;;;;;;0.80;0.80;;;;;;;-0.74;88.08;97065.69;299395;206;63009;-62
2021/01/17 14:43:40;;;;;;;0.80;0.80;;;;;;;-0.70;88.13;97074.06;299395;202;63005;-63
2021/01/17 14:48:45;;;;;;;0.80;0.80;;;;;;;-0.78;88.40;97074.31;299395;211;63008;-63
2021/01/17 14:53:46;;;;;;;0.90;0.90;;;;;;;-0.73;88.83;97091.28;299417;196;63004;-63
2021/01/17 14:58:47;;;;;;;0.90;0.90;;;;;;;-0.69;88.90;97096.97;299395;224;63009;-61
2021/01/17 15:03:48;;;;;;;0.80;0.80;;;;;;;-0.70;88.73;97100.72;299395;209;63008;-60
2021/01/17 15:08:53;;;;;;;0.80;0.80;;;;;;;-0.71;88.79;97120.41;299395;227;63009;-60
2021/01/17 15:13:56;;;;;;;0.88;0.88;;;;;;;-0.75;89.06;97120.00;299395;225;63005;-62
2021/01/17 15:18:58;;;;;;;0.80;0.80;;;;;;;-0.79;89.27;97139.28;299395;227;63008;-62
2021/01/17 15:24:00;;;;;;;0.80;0.80;;;;;;;-0.77;89.41;97142.56;299395;255;63004;-62
2021/01/17 15:29:01;;;;;;;0.80;0.80;;;;;;;-0.77;89.08;97146.03;299395;265;63009;-62
2021/01/17 15:34:02;;;;;;;0.80;0.80;;;;;;;-0.80;89.39;97149.13;299395;219;63004;-62
2021/01/17 15:39:04;;;;;;;0.80;0.80;;;;;;;-0.85;89.29;97167.59;299395;217;63009;-63
2021/01/17 15:44:06;;;;;;;0.90;0.90;;;;;;;-0.83;89.66;97165.53;299395;205;63005;-62
2021/01/17 15:49:07;;;;;;;0.90;0.90;;;;;;;-0.82;89.57;97172.50;299395;290;63009;-62
2021/01/17 15:54:08;;;;;;;0.80;0.80;;;;;;;-0.85;89.70;97186.25;299395;212;63004;-62
2021/01/17 15:59:09;;;;;;;0.80;0.80;;;;;;;-0.88;89.76;97181.34;299395;206;63009;-62
2021/01/17 16:04:11;;;;;;;0.80;0.80;;;;;;;-0.89;89.74;97193.03;299395;238;63005;-64
2021/01/17 16:09:13;;;;;;;0.80;0.80;;;;;;;-0.88;90.00;97207.19;299395;229;63009;-60
2021/01/17 16:14:14;;;;;;;0.80;0.80;;;;;;;-0.88;89.80;97215.97;299394;221;64005;-63
2021/01/17 16:19:15;;;;;;;0.80;0.80;;;;;;;-0.87;89.94;97217.63;299395;215;63009;-61
2021/01/17 16:24:16;;;;;;;0.90;0.90;;;;;;;-0.79;90.21;97222.72;299395;224;63004;-61
2021/01/17 16:29:18;;;;;;;0.80;0.80;;;;;;;-0.51;89.32;97224.19;299395;282;63020;-61
2021/01/17 16:34:21;;;;;;;0.90;0.90;;;;;;;-0.49;88.97;97240.78;299395;196;63005;-59
2021/01/17 16:39:25;;;;;;;0.80;0.80;;;;;;;-0.49;88.18;97246.12;299395;197;63009;-61
2021/01/17 16:44:28;;;;;;;0.80;0.80;;;;;;;-0.46;88.82;97245.69;299417;210;63012;-61
2021/01/17 16:49:29;;;;;;;0.80;0.80;;;;;;;-0.36;88.49;97251.38;299395;223;63009;-61
2021/01/17 16:54:30;;;;;;;0.80;0.80;;;;;;;-0.43;88.26;97250.59;299395;202;63004;-61
2021/01/17 16:59:31;;;;;;;0.80;0.80;;;;;;;-0.43;88.26;97255.94;299395;217;63009;-62
2021/01/17 17:04:33;;;;;;;0.80;0.80;;;;;;;-0.45;89.06;97268.66;299395;214;63005;-62
2021/01/17 17:09:38;;;;;;;0.80;0.80;;;;;;;-0.44;88.88;97280.94;299395;202;63008;-62
2021/01/17 17:14:39;;;;;;;0.80;0.80;;;;;;;-0.49;89.36;97283.44;299417;207;63005;-63
2021/01/17 17:19:40;;;;;;;0.90;0.90;;;;;;;-0.42;89.15;97290.38;299395;200;63009;-60
2021/01/17 17:24:42;;;;;;;0.90;0.90;;;;;;;-0.45;89.59;97289.97;299395;204;63009;-62
2021/01/17 17:29:43;;;;;;;0.90;0.90;;;;;;;-0.47;89.95;97292.03;299395;206;63009;-62
2021/01/17 17:34:47;;;;;;;0.80;0.80;;;;;;;-0.22;89.44;97300.09;299395;213;63005;-62
2021/01/17 17:39:50;;;;;;;0.80;0.80;;;;;;;-0.30;88.77;97303.81;299417;196;63008;-64
2021/01/17 17:44:50;;;;;;;0.80;0.80;;;;;;;-0.41;89.01;97320.50;299373;251;63004;-59
2021/01/17 17:49:52;;;;;;;0.80;0.80;;;;;;;-0.35;88.97;97325.78;299395;244;63030;-64
2021/01/17 17:54:53;;;;;;;0.80;0.80;;;;;;;-0.38;89.42;97322.75;299395;206;63004;-62
2021/01/17 17:59:54;;;;;;;0.80;0.80;;;;;;;-0.26;88.63;97322.88;299395;199;63009;-58
2021/01/17 18:04:54;;;;;;;0.80;0.80;;;;;;;-0.04;88.21;97333.03;299395;224;63005;-57
2021/01/17 18:09:55;;;;;;;0.80;0.80;;;;;;;-0.02;88.19;97349.63;299395;215;63008;-61
2021/01/17 18:14:56;;;;;;;0.80;0.80;;;;;;;0.07;87.44;97346.69;299394;229;64009;-58
2021/01/17 18:19:58;;;;;;;0.88;0.88;;;;;;;0.02;87.82;97349.19;299395;196;63009;-63
2021/01/17 18:24:59;;;;;;;0.80;0.80;;;;;;;0.06;88.05;97345.06;299395;242;63013;-57
2021/01/17 18:30:00;;;;;;;0.80;0.80;;;;;;;0.18;87.62;97349.50;299395;202;63009;-60
2021/01/17 18:35:02;;;;;;;0.80;0.80;;;;;;;-0.05;87.98;97359.91;299395;221;63005;-61
2021/01/17 18:40:09;;;;;;;0.80;0.80;;;;;;;0.05;87.83;97364.75;299395;289;63009;-63
2021/01/17 18:45:12;;;;;;;0.80;0.80;;;;;;;0.15;86.83;97365.13;299395;258;63004;-59
2021/01/17 18:50:14;;;;;;;0.80;0.80;;;;;;;0.23;87.28;97367.53;299395;211;63009;-59
2021/01/17 18:55:15;;;;;;;0.80;0.80;;;;;;;0.15;87.72;97370.47;299395;245;63005;-59
2021/01/17 19:00:17;;;;;;;0.80;0.80;;;;;;;0.02;87.75;97375.84;299395;205;63009;-60
2021/01/17 19:05:18;;;;;;;1.90;1.80;;;;;;;0.06;88.09;97377.06;299395;238;63005;-58
2021/01/17 19:10:19;;;;;;;0.90;0.90;;;;;;;0.13;87.88;97376.00;299395;199;63021;-67
2021/01/17 19:15:20;;;;;;;0.80;0.80;;;;;;;0.25;87.41;97386.81;299395;219;63004;-61
2021/01/17 19:20:22;;;;;;;0.80;0.80;;;;;;;0.22;87.32;97392.59;299395;198;63019;-58
2021/01/17 19:25:23;;;;;;;0.80;0.80;;;;;;;0.14;87.92;97395.50;299395;222;63005;-65
2021/01/17 19:30:24;;;;;;;0.90;0.90;;;;;;;0.27;87.75;97395.44;299395;207;63009;-63
2021/01/17 19:35:25;;;;;;;0.95;0.95;;;;;;;0.19;88.06;97395.69;299395;238;63005;-65
2021/01/17 19:40:26;;;;;;;0.80;0.80;;;;;;;0.31;87.62;97397.47;299395;203;63009;-63
2021/01/17 19:45:26;;;;;;;0.80;0.80;;;;;;;0.11;88.57;97407.41;299395;211;63004;-63
2021/01/17 19:50:28;;;;;;;0.80;0.80;;;;;;;0.16;87.88;97406.78;299396;212;63009;-54
2021/01/17 19:55:29;;;;;;;0.80;0.80;;;;;;;0.16;88.60;97412.13;299396;251;63005;-55
2021/01/17 20:00:30;;;;;;;0.80;0.80;;;;;;;0.03;88.74;97413.00;299396;229;63009;-66
2021/01/17 20:05:31;;;;;;;0.80;0.80;;;;;;;0.10;89.47;97416.47;299396;202;63005;-67
2021/01/17 20:10:33;;;;;;;1.00;1.00;;;;;;;0.04;88.84;97417.31;299396;200;63009;-69
2021/01/17 20:15:38;;;;;;;0.80;0.80;;;;;;;0.04;89.34;97421.81;299396;196;63004;-69
2021/01/17 20:20:39;;;;;;;0.80;0.80;;;;;;;0.17;88.99;97427.09;299396;196;63009;-71
2021/01/17 20:25:40;;;;;;;0.80;0.80;;;;;;;0.07;89.44;97429.41;299395;222;64005;-66
2021/01/17 20:30:41;;;;;;;0.80;0.80;;;;;;;0.18;88.72;97434.06;299396;214;63008;-70
2021/01/17 20:35:42;;;;;;;0.80;0.80;;;;;;;0.22;88.62;97443.28;299397;263;63004;-70
2021/01/17 20:40:42;;;;;;;0.80;0.80;;;;;;;0.22;88.66;97437.97;299397;253;63009;-69
2021/01/17 20:45:44;;;;;;;1.83;1.75;;;;;;;0.24;88.08;97449.25;299396;209;63004;-67
2021/01/17 20:50:48;;;;;;;0.80;0.80;;;;;;;0.12;88.77;97434.91;299396;277;63009;-67
2021/01/17 20:55:49;;;;;;;0.80;0.80;;;;;;;0.26;88.72;97441.84;299418;210;63005;-65
2021/01/17 21:00:50;;;;;;;0.80;0.80;;;;;;;0.20;88.36;97453.38;299396;206;63008;-66
2021/01/17 21:05:51;;;;;;;0.80;0.80;;;;;;;0.19;88.89;97457.88;299396;210;63004;-57
2021/01/17 21:10:52;;;;;;;0.80;0.80;;;;;;;0.20;88.52;97466.72;299396;197;63009;-62
2021/01/17 21:15:53;;;;;;;0.80;0.80;;;;;;;0.19;88.92;97463.22;299396;249;63011;-63
2021/01/17 21:20:54;;;;;;;0.80;0.80;;;;;;;0.23;88.56;97460.94;299396;256;63009;-63
2021/01/17 21:25:56;;;;;;;0.80;0.80;;;;;;;0.30;88.71;97467.06;299397;224;63005;-61
2021/01/17 21:31:01;;;;;;;0.80;0.80;;;;;;;0.32;88.45;97473.00;299397;218;63008;-62
2021/01/17 21:36:02;;;;;;;0.80;0.80;;;;;;;0.40;87.92;97472.75;299417;226;63004;-63
2021/01/17 21:41:03;;;;;;;0.80;0.80;;;;;;;0.48;87.58;97472.50;299395;295;63009;-60
2021/01/17 21:46:04;;;;;;;0.80;0.80;;;;;;;0.40;87.62;97475.41;299394;244;63005;-64
2021/01/17 21:51:05;;;;;;;0.80;0.80;;;;;;;0.43;87.59;97480.31;299395;219;63021;-60
2021/01/17 21:56:08;;;;;;;0.80;0.80;;;;;;;0.36;88.17;97482.22;299395;282;63005;-61
2021/01/17 22:01:09;;;;;;;0.80;0.80;;;;;;;0.54;87.05;97495.69;299395;212;63009;-62
2021/01/17 22:06:20;;;;;;;0.80;0.80;;;;;;;0.42;87.02;97500.03;299395;205;63004;-69
2021/01/17 22:11:21;;;;;;;0.80;0.80;;;;;;;0.54;87.06;97519.72;299395;233;63009;-60
2021/01/17 22:16:23;;;;;;;0.80;0.80;;;;;;;0.35;87.65;97515.28;299395;218;63005;-58
2021/01/17 22:21:32;;;;;;;0.80;0.80;;;;;;;0.41;87.92;97524.28;299395;247;63009;-60
2021/01/17 22:26:33;;;;;;;0.80;0.80;;;;;;;0.33;87.83;97520.03;299395;205;63005;-59
2021/01/17 22:31:42;;;;;;;0.80;0.80;;;;;;;0.22;88.37;97512.69;299395;197;63009;-69
2021/01/17 22:36:45;;;;;;;0.80;0.80;;;;;;;0.46;88.07;97517.28;299395;259;63004;-60
2021/01/17 22:41:46;;;;;;;0.80;0.80;;;;;;;0.54;86.91;97518.88;299395;230;63009;-66
2021/01/17 22:46:47;;;;;;;0.80;0.80;;;;;;;0.51;87.33;97524.66;299395;197;63005;-66
2021/01/17 22:51:48;;;;;;;0.80;0.80;;;;;;;0.38;87.40;97514.03;299395;215;63009;-65
2021/01/17 22:56:54;;;;;;;0.80;0.80;;;;;;;0.50;87.37;97523.00;299395;202;63005;-59
2021/01/17 23:01:57;;;;;;;0.80;0.80;;;;;;;0.42;87.57;97526.75;299395;260;63009;-62
2021/01/17 23:06:59;;;;;;;0.70;0.70;;;;;;;0.50;87.49;97528.34;299395;215;63008;-60
2021/01/17 23:12:03;;;;;;;0.80;0.80;;;;;;;0.43;87.52;97533.72;299395;234;63009;-63
2021/01/17 23:17:03;;;;;;;0.80;0.80;;;;;;;0.52;86.81;97527.12;299395;220;63005;-58
2021/01/17 23:22:05;;;;;;;0.80;0.80;;;;;;;0.44;86.75;97523.87;299395;243;63009;-62
2021/01/17 23:27:06;;;;;;;1.15;1.12;;;;;;;0.51;86.63;97538.81;299395;216;63004;-59
2021/01/17 23:32:07;;;;;;;0.80;0.80;;;;;;;0.56;85.74;97533.66;299395;227;63009;-60
2021/01/17 23:37:08;;;;;;;0.80;0.80;;;;;;;0.55;86.07;97528.53;299395;222;63004;-59
2021/01/17 23:42:09;;;;;;;0.80;0.80;;;;;;;0.53;85.82;97528.75;299395;236;63009;-60
2021/01/17 23:47:13;;;;;;;0.80;0.80;;;;;;;0.52;85.90;97532.44;299394;260;64009;-60
2021/01/17 23:52:14;;;;;;;0.80;0.80;;;;;;;0.45;86.43;97536.19;299417;218;63008;-59
2021/01/17 23:57:15;;;;;;;0.80;0.80;;;;;;;0.38;87.19;97538.06;299395;204;63004;-58
